createdAt,value
2022-11-21T00:01:18.550Z,63.78
2022-11-21T00:03:47.731Z,57.42
2022-11-21T00:06:18.343Z,66.25
2022-11-21T00:08:47.286Z,57.58
2022-11-21T00:11:16.490Z,67.47
2022-11-21T00:13:45.189Z,65.78
2022-11-21T00:16:15.522Z,66.13
2022-11-21T00:18:45.242Z,66.05
2022-11-21T00:21:19.195Z,65.88
2022-11-21T00:23:48.902Z,58.80
2022-11-21T00:26:18.175Z,43.22
2022-11-21T00:28:46.693Z,67.00
2022-11-21T00:31:22.135Z,63.40
2022-11-21T00:33:50.905Z,64.20
2022-11-21T00:36:21.118Z,64.20
2022-11-21T00:41:18.476Z,62.60
2022-11-21T00:43:47.030Z,62.58
2022-11-21T00:46:15.912Z,58.20
2022-11-21T00:48:44.747Z,54.78
2022-11-21T00:51:13.735Z,62.35
2022-11-21T00:53:44.007Z,66.53
2022-11-21T00:56:12.937Z,63.70
2022-11-21T00:58:41.476Z,62.97
2022-11-21T01:01:12.889Z,67.88
2022-11-21T01:03:42.287Z,64.53
2022-11-21T01:06:12.600Z,69.70
2022-11-21T01:08:45.128Z,65.18
2022-11-21T01:11:15.821Z,65.95
2022-11-21T01:13:44.403Z,67.20
2022-11-21T01:16:14.942Z,68.32
2022-11-21T01:18:44.133Z,67.07
2022-11-21T01:21:15.166Z,51.63
2022-11-21T01:23:45.974Z,54.75
2022-11-21T01:26:16.886Z,66.10
2022-11-21T01:28:45.478Z,66.78
2022-11-21T01:31:18.626Z,57.67
2022-11-21T01:33:47.620Z,60.17
2022-11-21T01:36:18.058Z,57.45
2022-11-21T01:38:49.661Z,62.83
2022-11-21T01:41:20.293Z,71.55
2022-11-21T01:43:49.171Z,67.95
2022-11-21T01:46:19.350Z,67.40
2022-11-21T01:48:51.806Z,48.88
2022-11-21T01:51:23.621Z,42.17
2022-11-21T01:53:56.501Z,43.13
2022-11-21T01:56:25.766Z,59.40
2022-11-21T01:58:55.029Z,69.32
2022-11-21T02:01:24.170Z,68.57
2022-11-21T02:03:53.526Z,69.55
2022-11-21T02:06:22.502Z,68.15
2022-11-21T02:08:51.411Z,68.28
2022-11-21T02:11:27.356Z,68.82
2022-11-21T02:13:56.718Z,66.68
2022-11-21T02:16:25.755Z,68.90
2022-11-21T02:18:54.933Z,67.38
2022-11-21T02:21:30.245Z,69.57
2022-11-21T02:24:02.833Z,68.43
2022-11-21T02:26:33.303Z,73.28
2022-11-21T02:29:02.115Z,72.78
2022-11-21T02:31:30.605Z,68.93
2022-11-21T02:33:59.368Z,68.28
2022-11-21T02:36:41.653Z,65.15
2022-11-21T02:39:13.460Z,64.65
2022-11-21T02:41:45.729Z,69.75
2022-11-21T02:44:21.630Z,72.47
2022-11-21T02:46:51.468Z,66.82
2022-11-21T02:54:19.011Z,67.72
2022-11-21T02:56:49.374Z,73.75
2022-11-21T02:59:18.434Z,74.22
2022-11-21T03:01:47.022Z,72.28
2022-11-21T03:04:15.961Z,75.30
2022-11-21T03:06:44.831Z,64.68
2022-11-21T03:09:13.945Z,66.32
2022-11-21T03:11:42.808Z,73.75
2022-11-21T03:14:13.301Z,62.90
2022-11-21T03:16:41.849Z,67.60
2022-11-21T03:19:10.835Z,69.38
2022-11-21T03:21:39.697Z,70.15
2022-11-21T03:24:09.477Z,68.13
2022-11-21T03:26:38.280Z,64.20
2022-11-21T03:29:07.457Z,68.25
2022-11-21T03:31:37.405Z,71.50
2022-11-21T03:36:34.761Z,58.33
2022-11-21T03:39:03.710Z,68.90
2022-11-21T03:41:32.590Z,55.30
2022-11-21T03:44:03.378Z,63.55
2022-11-21T03:46:34.055Z,48.75
2022-11-21T03:49:04.751Z,71.57
2022-11-21T03:51:33.853Z,62.28
2022-11-21T03:54:02.670Z,62.83
2022-11-21T03:56:31.924Z,66.57
2022-11-21T03:59:01.074Z,71.20
2022-11-21T04:01:35.238Z,73.55
2022-11-21T04:04:07.126Z,72.72
2022-11-21T04:06:36.100Z,71.97
2022-11-21T04:09:05.378Z,68.20
2022-11-21T04:11:34.200Z,73.23
2022-11-21T04:14:03.081Z,67.80
2022-11-21T04:16:31.663Z,71.32
2022-11-21T04:19:00.499Z,70.88
2022-11-21T04:21:31.294Z,67.68
2022-11-21T04:24:00.045Z,72.00
2022-11-21T04:26:28.687Z,66.78
2022-11-21T04:28:57.351Z,68.40
2022-11-21T04:31:25.673Z,68.32
2022-11-21T04:33:54.335Z,65.30
2022-11-21T04:36:22.924Z,65.22
2022-11-21T04:38:53.064Z,67.70
2022-11-21T04:41:21.707Z,72.18
2022-11-21T04:43:50.082Z,68.78
2022-11-21T04:46:18.758Z,65.07
2022-11-21T04:48:47.360Z,69.60
2022-11-21T04:51:16.048Z,69.80
2022-11-21T04:53:44.722Z,65.68
2022-11-21T04:56:16.680Z,65.00
2022-11-21T04:58:45.638Z,46.10
2022-11-21T05:01:14.455Z,70.37
2022-11-21T05:03:43.097Z,69.43
2022-11-21T05:06:11.783Z,71.47
2022-11-21T05:08:40.475Z,71.93
2022-11-21T05:11:26.828Z,59.10
2022-11-21T05:13:56.631Z,73.35
2022-11-21T05:18:53.811Z,66.57
2022-11-21T05:21:22.445Z,66.10
2022-11-21T05:23:51.186Z,69.43
2022-11-21T05:26:19.814Z,68.10
2022-11-21T05:28:48.876Z,50.05
2022-11-21T05:31:18.978Z,65.00
2022-11-21T05:36:16.041Z,68.13
2022-11-21T05:38:44.681Z,66.78
2022-11-21T05:41:13.509Z,46.83
2022-11-21T05:43:47.041Z,64.38
2022-11-21T05:46:16.686Z,71.50
2022-11-21T05:48:47.394Z,70.68
2022-11-21T05:51:16.570Z,56.47
2022-11-21T05:53:45.555Z,68.38
2022-11-21T05:56:15.946Z,56.38
2022-11-21T05:58:44.429Z,70.30
2022-11-21T06:01:14.808Z,68.72
2022-11-21T06:03:43.456Z,72.25
2022-11-21T06:06:15.101Z,68.82
2022-11-21T06:08:44.684Z,64.32
2022-11-21T06:11:15.367Z,70.72
2022-11-21T06:13:44.227Z,69.90
2022-11-21T06:16:14.859Z,44.73
2022-11-21T06:18:45.159Z,55.42
2022-11-21T06:21:16.436Z,69.97
2022-11-21T06:23:45.255Z,70.18
2022-11-21T06:26:16.435Z,66.40
2022-11-21T06:28:45.823Z,59.97
2022-11-21T06:31:16.171Z,52.85
2022-11-21T06:33:45.759Z,68.10
2022-11-21T06:36:17.130Z,49.97
2022-11-21T06:38:46.573Z,51.92
2022-11-21T06:41:16.783Z,62.13
2022-11-21T06:43:45.368Z,57.10
2022-11-21T06:46:15.156Z,65.75
2022-11-21T06:48:45.622Z,68.30
2022-11-21T06:51:19.163Z,53.47
2022-11-21T06:53:48.762Z,54.00
2022-11-21T06:56:17.489Z,64.43
2022-11-21T06:58:45.862Z,39.15
2022-11-21T07:01:14.724Z,50.25
2022-11-21T07:03:43.746Z,66.90
2022-11-21T07:06:12.484Z,59.55
2022-11-21T07:08:42.599Z,43.55
2022-11-21T07:11:27.527Z,64.93
2022-11-21T07:13:54.902Z,66.90
2022-11-21T07:16:26.351Z,47.13
2022-11-21T07:18:55.291Z,66.00
2022-11-21T07:21:23.896Z,65.25
2022-11-21T07:23:54.076Z,64.72
2022-11-21T07:28:50.877Z,42.80
2022-11-21T07:31:19.523Z,42.28
2022-11-21T07:33:48.319Z,46.78
2022-11-21T07:36:16.988Z,39.67
2022-11-21T07:38:47.663Z,46.90
2022-11-21T07:41:17.685Z,50.15
2022-11-21T07:43:46.006Z,53.63
2022-11-21T07:46:14.758Z,48.08
2022-11-21T07:48:43.467Z,44.17
2022-11-21T07:51:12.575Z,38.00
2022-11-21T07:53:41.285Z,45.75
2022-11-21T07:56:10.632Z,50.80
2022-11-21T07:58:40.771Z,47.30
2022-11-21T08:01:09.634Z,39.63
2022-11-21T08:03:38.503Z,49.92
2022-11-21T08:06:07.322Z,48.53
2022-11-21T08:08:36.066Z,51.70
2022-11-21T08:11:06.681Z,49.47
2022-11-21T08:13:35.583Z,51.97
2022-11-21T08:16:06.262Z,46.30
2022-11-21T08:18:35.059Z,51.40
2022-11-21T08:21:04.452Z,48.92
2022-11-21T08:23:33.445Z,47.15
2022-11-21T08:26:02.210Z,47.80
2022-11-21T08:28:30.563Z,50.72
2022-11-21T08:30:59.346Z,52.72
2022-11-21T08:33:29.435Z,45.63
2022-11-21T08:35:58.582Z,42.83
2022-11-21T08:38:27.225Z,45.05
2022-11-21T08:41:13.449Z,48.33
2022-11-21T08:43:46.463Z,36.58
2022-11-21T08:46:15.252Z,42.78
2022-11-21T08:48:45.433Z,44.20
2022-11-21T08:51:14.206Z,43.72
2022-11-21T08:53:42.905Z,36.60
2022-11-21T08:56:11.756Z,29.27
2022-11-21T08:58:40.124Z,43.20
2022-11-21T09:01:08.825Z,43.33
2022-11-21T09:03:37.704Z,40.50
2022-11-21T09:06:07.988Z,40.33
2022-11-21T09:11:06.136Z,41.22
2022-11-21T09:13:35.221Z,40.10
2022-11-21T09:16:22.085Z,38.85
2022-11-21T09:18:53.521Z,39.38
2022-11-21T09:21:23.886Z,40.30
2022-11-21T09:23:52.641Z,38.90
2022-11-21T09:26:21.498Z,43.17
2022-11-21T09:28:49.914Z,43.25
2022-11-21T09:31:18.667Z,40.75
2022-11-21T09:33:49.724Z,42.83
2022-11-21T09:36:23.914Z,41.83
2022-11-21T09:41:46.967Z,37.33
2022-11-21T09:44:35.217Z,37.97
2022-11-21T09:47:08.608Z,31.63
2022-11-21T09:49:42.238Z,40.75
2022-11-21T09:52:13.862Z,40.00
2022-11-21T09:54:48.613Z,33.45
2022-11-21T09:57:19.722Z,38.13
2022-11-21T09:59:49.232Z,35.67
2022-11-21T10:02:19.288Z,36.45
2022-11-21T10:04:48.232Z,38.45
2022-11-21T10:07:23.658Z,37.78
2022-11-21T10:10:12.123Z,38.35
2022-11-21T10:12:49.000Z,36.35
2022-11-21T10:15:28.264Z,35.80
2022-11-21T10:18:19.948Z,35.70
2022-11-21T10:20:56.274Z,34.20
2022-11-21T10:23:35.821Z,34.78
2022-11-21T10:26:15.335Z,32.55
2022-11-21T10:28:49.447Z,33.67
2022-11-21T10:31:18.813Z,32.42
2022-11-21T10:33:47.932Z,34.78
2022-11-21T10:36:25.639Z,35.95
2022-11-21T10:38:58.964Z,36.15
2022-11-21T10:41:38.991Z,37.70
2022-11-21T10:44:32.087Z,35.70
2022-11-21T10:47:01.791Z,38.83
2022-11-21T10:49:32.008Z,39.25
2022-11-21T10:52:05.756Z,37.50
2022-11-21T10:55:07.015Z,41.55
2022-11-21T10:57:40.158Z,41.97
2022-11-21T11:00:21.945Z,40.53
2022-11-21T11:03:04.951Z,42.70
2022-11-21T11:05:35.581Z,38.83
2022-11-21T11:08:09.168Z,36.58
2022-11-21T11:10:40.433Z,39.78
2022-11-21T11:13:50.847Z,41.53
2022-11-21T11:16:21.859Z,39.10
2022-11-21T11:18:56.615Z,41.38
2022-11-21T11:21:26.783Z,40.70
2022-11-21T11:23:56.804Z,41.92
2022-11-21T11:26:29.081Z,41.33
2022-11-21T11:29:09.753Z,39.80
2022-11-21T11:31:42.955Z,42.35
2022-11-21T11:34:15.163Z,39.78
2022-11-21T11:36:58.091Z,40.00
2022-11-21T11:39:38.472Z,39.40
2022-11-21T11:42:59.593Z,39.95
2022-11-21T11:46:06.302Z,40.75
2022-11-21T11:48:56.568Z,38.65
2022-11-21T11:51:33.395Z,37.53
2022-11-21T11:54:04.867Z,39.67
2022-11-21T11:56:37.167Z,34.55
2022-11-21T11:59:12.147Z,37.35
2022-11-21T12:01:44.256Z,35.88
2022-11-21T12:04:15.377Z,35.85
2022-11-21T12:09:41.379Z,37.35
2022-11-21T12:12:15.757Z,37.13
2022-11-21T12:15:19.247Z,29.58
2022-11-21T12:17:55.732Z,25.67
2022-11-21T12:20:27.157Z,35.83
2022-11-21T12:22:56.416Z,37.70
2022-11-21T12:25:30.586Z,35.27
2022-11-21T12:27:59.841Z,40.10
2022-11-21T12:30:49.116Z,38.25
2022-11-21T12:33:22.325Z,35.47
2022-11-21T12:36:16.668Z,37.25
2022-11-21T12:38:59.602Z,40.58
2022-11-21T12:41:51.845Z,39.83
2022-11-21T12:44:32.224Z,32.78
2022-11-21T12:47:11.958Z,38.70
2022-11-21T12:50:07.766Z,38.78
2022-11-21T12:53:11.082Z,33.75
2022-11-21T12:55:40.976Z,41.20
2022-11-21T12:58:27.073Z,27.17
2022-11-21T13:01:21.456Z,37.35
2022-11-21T13:03:59.071Z,39.63
2022-11-21T13:06:30.681Z,41.10
2022-11-21T13:09:02.429Z,39.92
2022-11-21T13:11:55.574Z,36.95
2022-11-21T13:14:30.560Z,36.83
2022-11-21T13:17:16.248Z,35.60
2022-11-21T13:19:51.803Z,39.78
2022-11-21T13:23:01.878Z,36.53
2022-11-21T13:25:39.384Z,37.92
2022-11-21T13:28:33.888Z,40.72
2022-11-21T13:31:04.307Z,41.13
2022-11-21T13:33:53.423Z,37.63
2022-11-21T13:36:40.506Z,43.17
2022-11-21T13:39:34.980Z,34.15
2022-11-21T13:42:23.430Z,41.63
2022-11-21T13:44:52.570Z,34.55
2022-11-21T13:47:58.206Z,39.65
2022-11-21T13:50:39.583Z,39.78
2022-11-21T13:53:18.937Z,39.50
2022-11-21T13:55:58.075Z,41.30
2022-11-21T13:58:37.060Z,40.90
2022-11-21T14:01:48.525Z,41.53
2022-11-21T14:04:38.224Z,35.55
2022-11-21T14:07:24.684Z,40.22
2022-11-21T14:09:54.175Z,35.05
2022-11-21T14:12:32.746Z,41.47
2022-11-21T14:15:19.505Z,37.42
2022-11-21T14:17:49.489Z,39.53
2022-11-21T14:20:22.277Z,40.78
2022-11-21T14:22:59.856Z,40.50
2022-11-21T14:25:36.235Z,40.75
2022-11-21T14:28:08.430Z,34.30
2022-11-21T14:30:38.656Z,40.53
2022-11-21T14:33:38.128Z,38.45
2022-11-21T14:36:08.685Z,42.20
2022-11-21T14:38:43.309Z,32.10
2022-11-21T14:41:28.000Z,35.60
2022-11-21T14:44:18.679Z,36.15
2022-11-21T14:46:48.078Z,44.88
2022-11-21T14:49:29.416Z,40.13
2022-11-21T14:52:19.258Z,43.53
2022-11-21T14:55:22.354Z,44.17
2022-11-21T14:57:42.789Z,36.78
2022-11-21T15:00:36.195Z,49.50
2022-11-21T15:03:04.999Z,46.88
2022-11-21T15:11:14.233Z,49.17
2022-11-21T15:14:12.218Z,52.15
2022-11-21T15:16:34.649Z,53.50
2022-11-21T15:19:10.239Z,53.53
2022-11-21T15:21:39.231Z,47.60
2022-11-21T15:24:18.574Z,50.72
2022-11-21T15:26:47.450Z,56.25
2022-11-21T15:29:21.487Z,57.40
2022-11-21T15:32:12.619Z,57.78
2022-11-21T15:34:44.749Z,50.92
2022-11-21T15:37:17.252Z,46.88
2022-11-21T15:39:47.996Z,50.58
2022-11-21T15:42:38.628Z,55.65
2022-11-21T15:47:53.127Z,50.90
2022-11-21T15:50:24.681Z,54.88
2022-11-21T15:52:54.678Z,52.25
2022-11-21T15:55:25.391Z,54.53
2022-11-21T15:57:54.112Z,56.35
2022-11-21T16:00:23.036Z,35.28
2022-11-21T16:02:53.184Z,50.13
2022-11-21T16:05:21.910Z,51.55
2022-11-21T16:07:50.361Z,53.05
2022-11-21T16:10:26.192Z,56.45
2022-11-21T16:12:56.903Z,55.80
2022-11-21T16:15:25.690Z,46.42
2022-11-21T16:17:55.845Z,47.88
2022-11-21T16:20:24.675Z,50.35
2022-11-21T16:22:53.001Z,54.22
2022-11-21T16:25:21.865Z,51.50
2022-11-21T16:27:50.528Z,36.95
2022-11-21T16:30:19.446Z,47.80
2022-11-21T16:32:48.171Z,54.55
2022-11-21T16:35:18.311Z,48.92
2022-11-21T16:37:47.249Z,54.53
2022-11-21T16:40:16.377Z,55.07
2022-11-21T16:42:45.081Z,44.28
2022-11-21T16:45:14.119Z,57.70
2022-11-21T16:47:48.436Z,40.05
2022-11-21T16:50:19.329Z,56.85
2022-11-21T16:52:47.641Z,58.58
2022-11-21T16:55:16.466Z,50.58
2022-11-21T16:57:45.076Z,57.55
2022-11-21T17:00:14.323Z,54.92
2022-11-21T17:02:43.114Z,54.78
2022-11-21T17:05:11.827Z,54.25
2022-11-21T17:07:41.743Z,56.42
2022-11-21T17:12:39.854Z,41.88
2022-11-21T17:15:10.488Z,37.63
2022-11-21T17:17:39.239Z,55.97
2022-11-21T17:20:09.398Z,51.25
2022-11-21T17:22:37.781Z,53.90
2022-11-21T17:25:08.769Z,43.50
2022-11-21T17:27:37.442Z,52.78
2022-11-21T17:30:07.158Z,51.40
2022-11-21T17:32:36.571Z,51.60
2022-11-21T17:35:05.844Z,52.75
2022-11-21T17:37:34.346Z,56.58
2022-11-21T17:40:03.101Z,55.58
2022-11-21T17:42:33.190Z,44.55
2022-11-21T17:45:01.886Z,56.10
2022-11-21T17:47:30.530Z,49.83
2022-11-21T17:50:05.350Z,55.83
2022-11-21T17:52:34.542Z,58.42
2022-11-21T17:55:03.366Z,58.13
2022-11-21T17:57:33.642Z,56.28
2022-11-21T18:00:02.510Z,52.30
2022-11-21T18:02:33.182Z,46.13
2022-11-21T18:05:02.193Z,57.20
2022-11-21T18:07:31.140Z,51.70
2022-11-21T18:10:20.551Z,53.40
2022-11-21T18:12:51.541Z,50.53
2022-11-21T18:15:20.263Z,36.00
2022-11-21T18:17:48.924Z,46.45
2022-11-21T18:20:18.119Z,48.92
2022-11-21T18:22:48.869Z,43.65
2022-11-21T18:25:17.722Z,57.10
2022-11-21T18:27:51.821Z,44.45
2022-11-21T18:30:24.428Z,50.38
2022-11-21T18:32:53.138Z,56.72
2022-11-21T18:35:21.806Z,43.88
2022-11-21T18:37:50.188Z,59.88
2022-11-21T18:40:19.034Z,56.58
2022-11-21T18:42:47.712Z,55.45
2022-11-21T18:45:16.546Z,36.60
2022-11-21T18:47:47.841Z,57.13
2022-11-21T18:50:17.419Z,59.45
2022-11-21T18:52:46.992Z,55.20
2022-11-21T18:55:15.837Z,57.97
2022-11-21T18:57:44.499Z,43.55
2022-11-21T19:00:14.157Z,48.35
2022-11-21T19:02:42.921Z,38.60
2022-11-21T19:05:17.581Z,46.00
2022-11-21T19:07:48.740Z,46.20
2022-11-21T19:10:42.202Z,53.28
2022-11-21T19:13:07.197Z,51.15
2022-11-21T19:15:38.331Z,36.60
2022-11-21T19:18:07.552Z,50.17
2022-11-21T19:20:37.763Z,33.13
2022-11-21T19:25:35.045Z,50.22
2022-11-21T19:28:03.808Z,25.65
2022-11-21T19:30:32.623Z,36.63
2022-11-21T19:33:01.244Z,38.40
2022-11-21T19:35:30.166Z,31.02
2022-11-21T19:38:01.337Z,46.85
2022-11-21T19:40:49.908Z,42.00
2022-11-21T19:43:19.610Z,28.48
2022-11-21T19:45:53.713Z,42.20
2022-11-21T19:48:26.573Z,30.83
2022-11-21T19:50:58.741Z,41.47
2022-11-21T19:53:30.499Z,40.75
2022-11-21T19:55:58.790Z,38.53
2022-11-21T19:58:27.622Z,37.20
2022-11-21T20:00:56.546Z,34.13
2022-11-21T20:03:25.474Z,26.00
2022-11-21T20:05:54.126Z,31.15
2022-11-21T20:08:22.853Z,33.15
2022-11-21T20:10:52.726Z,36.20
2022-11-21T20:13:21.368Z,33.15
2022-11-21T20:15:50.133Z,44.13
2022-11-21T20:18:18.802Z,37.42
2022-11-21T20:20:47.515Z,51.08
2022-11-21T20:23:16.122Z,48.65
2022-11-21T20:25:45.328Z,45.08
2022-11-21T20:28:15.420Z,45.03
2022-11-21T20:30:44.050Z,50.65
2022-11-21T20:33:12.724Z,48.65
2022-11-21T20:35:43.189Z,48.75
2022-11-21T20:38:12.731Z,48.33
2022-11-21T20:40:43.054Z,41.50
2022-11-21T20:43:17.713Z,49.42
2022-11-21T20:46:08.698Z,46.58
2022-11-21T20:48:36.199Z,49.72
2022-11-21T20:52:31.201Z,46.47
2022-11-21T20:53:57.191Z,51.55
2022-11-21T20:56:28.993Z,49.67
2022-11-21T20:58:59.303Z,49.80
2022-11-21T21:01:28.651Z,49.33
2022-11-21T21:03:57.607Z,51.78
2022-11-21T21:06:26.283Z,52.03
2022-11-21T21:08:54.886Z,45.47
2022-11-21T21:14:15.229Z,49.88
2022-11-21T21:19:12.395Z,30.65
2022-11-21T21:21:41.785Z,41.05
2022-11-21T21:24:12.345Z,56.88
2022-11-21T21:26:43.568Z,51.63
2022-11-21T21:29:15.152Z,53.90
2022-11-21T21:31:50.010Z,36.55
2022-11-21T21:34:20.118Z,53.28
2022-11-21T21:36:48.962Z,54.50
2022-11-21T21:39:17.699Z,58.03
2022-11-21T21:41:47.736Z,58.25
2022-11-21T21:44:18.334Z,41.63
2022-11-21T21:46:46.935Z,53.33
2022-11-21T21:49:15.907Z,55.22
2022-11-21T21:51:44.659Z,52.60
2022-11-21T21:54:18.623Z,52.70
2022-11-21T21:56:47.758Z,53.75
2022-11-21T21:59:18.447Z,48.90
2022-11-21T22:04:15.325Z,50.63
2022-11-21T22:06:44.080Z,43.47
2022-11-21T22:09:12.919Z,50.28
2022-11-21T22:11:41.614Z,49.40
2022-11-21T22:14:13.210Z,56.83
2022-11-21T22:16:43.487Z,30.00
2022-11-21T22:19:12.096Z,51.35
2022-11-21T22:21:41.136Z,38.00
2022-11-21T22:24:28.927Z,46.08
2022-11-21T22:26:57.648Z,47.50
2022-11-21T22:29:26.633Z,48.10
2022-11-21T22:31:56.554Z,46.85
2022-11-21T22:36:53.564Z,27.95
2022-11-21T22:39:22.244Z,37.25
2022-11-21T22:41:51.150Z,33.83
2022-11-21T22:44:22.857Z,49.03
2022-11-21T22:46:51.134Z,50.15
2022-11-21T22:49:21.413Z,46.58
2022-11-21T22:51:50.020Z,47.17
2022-11-21T22:54:18.560Z,40.97
2022-11-21T22:56:47.535Z,47.15
2022-11-21T22:59:16.271Z,38.10
2022-11-21T23:01:44.680Z,29.35
2022-11-21T23:04:17.506Z,47.65
2022-11-21T23:06:48.192Z,47.35
2022-11-21T23:11:45.402Z,47.05
2022-11-21T23:14:14.201Z,43.58
2022-11-21T23:16:42.844Z,39.97
2022-11-21T23:19:11.563Z,38.72
2022-11-21T23:21:40.192Z,35.63
2022-11-21T23:24:10.585Z,49.70
2022-11-21T23:26:39.359Z,43.33
2022-11-21T23:29:09.032Z,29.23
2022-11-21T23:31:37.669Z,45.22
2022-11-21T23:34:06.714Z,44.25
2022-11-21T23:36:35.411Z,46.65
2022-11-21T23:39:04.480Z,41.55
2022-11-21T23:41:34.630Z,45.08
2022-11-21T23:44:03.383Z,44.95
2022-11-21T23:46:31.813Z,32.92
2022-11-21T23:49:00.580Z,46.58
2022-11-21T23:51:29.303Z,43.00
2022-11-21T23:53:57.934Z,43.78
2022-11-21T23:56:26.645Z,47.95
2022-11-21T23:58:56.270Z,37.65
